sensor_id;sensor_type;location;lat;lon;timestamp;pressure;altitude;pressure_sealevel;temperature;humidity
76632;BME280;65526;48.578;-4.520;2023-02-27T00:01:39;102301.56;;;3.12;71.80
76632;BME280;65526;48.578;-4.520;2023-02-27T00:04:05;102525.50;;;4.69;71.54
76632;BME280;65526;48.578;-4.520;2023-02-27T00:06:32;102162.84;;;2.41;71.57
76632;BME280;65526;48.578;-4.520;2023-02-27T00:08:58;102234.47;;;2.44;72.23
76632;BME280;65526;48.578;-4.520;2023-02-27T00:11:25;102499.53;;;4.60;71.92
76632;BME280;65526;48.578;-4.520;2023-02-27T00:13:51;102056.47;;;1.35;71.93
76632;BME280;65526;48.578;-4.520;2023-02-27T00:16:18;102494.59;;;4.57;72.38
76632;BME280;65526;48.578;-4.520;2023-02-27T00:18:44;102118.88;;;2.04;72.08
76632;BME280;65526;48.578;-4.520;2023-02-27T00:21:11;102237.84;;;2.51;72.30
76632;BME280;65526;48.578;-4.520;2023-02-27T00:23:37;102165.56;;;2.09;72.25
76632;BME280;65526;48.578;-4.520;2023-02-27T00:26:04;101848.91;;;0.35;71.94
76632;BME280;65526;48.578;-4.520;2023-02-27T00:28:30;102051.06;;;0.97;72.34
76632;BME280;65526;48.578;-4.520;2023-02-27T00:30:57;102133.53;;;1.66;72.81
76632;BME280;65526;48.578;-4.520;2023-02-27T00:33:24;101855.94;;;0.26;72.62
76632;BME280;65526;48.578;-4.520;2023-02-27T00:35:58;101865.03;;;0.53;72.79
76632;BME280;65526;48.578;-4.520;2023-02-27T00:38:26;101503.03;;;-1.67;72.56
76632;BME280;65526;48.578;-4.520;2023-02-27T00:40:57;101957.63;;;0.45;72.87
76632;BME280;65526;48.578;-4.520;2023-02-27T00:43:23;102249.63;;;2.25;73.26
76632;BME280;65526;48.578;-4.520;2023-02-27T00:45:50;102087.94;;;1.54;73.12
76632;BME280;65526;48.578;-4.520;2023-02-27T00:48:16;102140.72;;;1.72;73.32
76632;BME280;65526;48.578;-4.520;2023-02-27T00:50:43;102552.34;;;4.52;73.59
76632;BME280;65526;48.578;-4.520;2023-02-27T00:53:09;102560.06;;;4.50;73.56
76632;BME280;65526;48.578;-4.520;2023-02-27T00:55:36;102198.88;;;2.49;73.42
76632;BME280;65526;48.578;-4.520;2023-02-27T00:58:02;102586.31;;;4.62;73.25
76632;BME280;65526;48.578;-4.520;2023-02-27T01:00:29;102519.66;;;4.65;73.59
76632;BME280;65526;48.578;-4.520;2023-02-27T01:02:55;101966.41;;;0.90;72.98
76632;BME280;65526;48.578;-4.520;2023-02-27T01:05:23;101959.63;;;1.19;72.87
76632;BME280;65526;48.578;-4.520;2023-02-27T01:07:49;101427.66;;;-2.17;72.68
76632;BME280;65526;48.578;-4.520;2023-02-27T01:10:16;102196.94;;;2.50;73.17
76632;BME280;65526;48.578;-4.520;2023-02-27T01:12:42;102204.09;;;2.51;73.05
76632;BME280;65526;48.578;-4.520;2023-02-27T01:15:09;102162.50;;;2.05;73.03
76632;BME280;65526;48.578;-4.520;2023-02-27T01:17:36;102497.94;;;4.22;73.59
76632;BME280;65526;48.578;-4.520;2023-02-27T01:20:05;101939.28;;;0.89;73.17
76632;BME280;65526;48.578;-4.520;2023-02-27T01:22:32;102524.41;;;4.70;73.43
76632;BME280;65526;48.578;-4.520;2023-02-27T01:24:59;101909.19;;;0.89;72.90
76632;BME280;65526;48.578;-4.520;2023-02-27T01:27:26;101760.56;;;0.08;72.86
76632;BME280;65526;48.578;-4.520;2023-02-27T01:29:52;102158.81;;;2.48;73.30
76632;BME280;65526;48.578;-4.520;2023-02-27T01:32:19;102588.19;;;4.57;73.65
76632;BME280;65526;48.578;-4.520;2023-02-27T01:34:45;102108.28;;;1.64;73.24
76632;BME280;65526;48.578;-4.520;2023-02-27T01:37:12;102016.97;;;1.53;73.48
76632;BME280;65526;48.578;-4.520;2023-02-27T01:39:41;102147.53;;;1.91;73.76
76632;BME280;65526;48.578;-4.520;2023-02-27T01:42:28;101875.78;;;0.60;73.72
76632;BME280;65526;48.578;-4.520;2023-02-27T01:47:43;102624.91;;;4.35;74.18
76632;BME280;65526;48.578;-4.520;2023-02-27T01:50:11;101708.47;;;-1.06;73.49
76632;BME280;65526;48.578;-4.520;2023-02-27T01:52:40;101971.22;;;0.39;73.55
76632;BME280;65526;48.578;-4.520;2023-02-27T01:55:08;101632.78;;;-0.94;73.78
76632;BME280;65526;48.578;-4.520;2023-02-27T01:57:38;101845.75;;;-0.17;74.11
76632;BME280;65526;48.578;-4.520;2023-02-27T02:00:06;102224.91;;;2.20;74.04
76632;BME280;65526;48.578;-4.520;2023-02-27T02:02:42;102499.34;;;4.29;74.26
76632;BME280;65526;48.578;-4.520;2023-02-27T02:05:09;102303.75;;;2.56;74.12
76632;BME280;65526;48.578;-4.520;2023-02-27T02:07:37;102097.56;;;1.84;74.14
76632;BME280;65526;48.578;-4.520;2023-02-27T02:10:06;102195.81;;;2.19;74.04
76632;BME280;65526;48.578;-4.520;2023-02-27T02:12:35;102265.88;;;2.53;73.88
76632;BME280;65526;48.578;-4.520;2023-02-27T02:15:02;102493.28;;;4.27;73.97
76632;BME280;65526;48.578;-4.520;2023-02-27T02:32:07;102270.44;;;2.21;74.14
76632;BME280;65526;48.578;-4.520;2023-02-27T02:40:04;102478.13;;;4.25;73.86
76632;BME280;65526;48.578;-4.520;2023-02-27T02:42:35;102478.44;;;4.28;73.88
76632;BME280;65526;48.578;-4.520;2023-02-27T02:53:22;102476.53;;;4.34;73.72
76632;BME280;65526;48.578;-4.520;2023-02-27T02:56:07;101889.34;;;0.55;73.21
76632;BME280;65526;48.578;-4.520;2023-02-27T02:58:51;101686.44;;;-0.45;73.59
76632;BME280;65526;48.578;-4.520;2023-02-27T03:01:29;101480.25;;;-1.61;73.77
76632;BME280;65526;48.578;-4.520;2023-02-27T03:04:13;101838.75;;;0.30;73.96
76632;BME280;65526;48.578;-4.520;2023-02-27T03:09:36;101782.88;;;0.21;73.86
76632;BME280;65526;48.578;-4.520;2023-02-27T03:12:08;101826.34;;;0.45;74.35
76632;BME280;65526;48.578;-4.520;2023-02-27T03:14:47;101915.63;;;0.99;74.09
76632;BME280;65526;48.578;-4.520;2023-02-27T03:17:22;101724.56;;;-0.71;74.39
76632;BME280;65526;48.578;-4.520;2023-02-27T03:19:57;102469.13;;;4.34;74.96
76632;BME280;65526;48.578;-4.520;2023-02-27T03:22:31;102143.72;;;2.19;74.37
76632;BME280;65526;48.578;-4.520;2023-02-27T03:25:00;102402.09;;;3.72;74.99
76632;BME280;65526;48.578;-4.520;2023-02-27T03:27:35;102531.78;;;4.22;75.05
76632;BME280;65526;48.578;-4.520;2023-02-27T03:30:07;102473.69;;;4.19;75.29
76632;BME280;65526;48.578;-4.520;2023-02-27T03:32:48;101807.34;;;0.11;74.89
76632;BME280;65526;48.578;-4.520;2023-02-27T03:35:18;102350.88;;;2.48;75.51
76632;BME280;65526;48.578;-4.520;2023-02-27T03:40:51;102471.47;;;4.16;75.82
76632;BME280;65526;48.578;-4.520;2023-02-27T03:46:40;102537.97;;;4.08;76.20
76632;BME280;65526;48.578;-4.520;2023-02-27T03:49:07;102514.56;;;4.05;76.17
76632;BME280;65526;48.578;-4.520;2023-02-27T03:51:35;102021.41;;;0.50;75.71
76632;BME280;65526;48.578;-4.520;2023-02-27T03:54:15;102140.09;;;1.86;75.91
76632;BME280;65526;48.578;-4.520;2023-02-27T03:57:05;102066.91;;;1.60;75.74
76632;BME280;65526;48.578;-4.520;2023-02-27T03:59:32;101487.72;;;-1.90;75.53
76632;BME280;65526;48.578;-4.520;2023-02-27T04:02:00;101805.50;;;-0.05;75.75
76632;BME280;65526;48.578;-4.520;2023-02-27T04:04:30;102249.28;;;2.43;75.97
76632;BME280;65526;48.578;-4.520;2023-02-27T04:13:43;101973.28;;;0.93;76.21
76632;BME280;65526;48.578;-4.520;2023-02-27T04:16:48;101844.78;;;0.11;76.04
76632;BME280;65526;48.578;-4.520;2023-02-27T04:19:31;101801.34;;;-0.29;76.38
76632;BME280;65526;48.578;-4.520;2023-02-27T04:30:29;102460.31;;;3.95;76.66
76632;BME280;65526;48.578;-4.520;2023-02-27T04:41:24;102561.97;;;3.85;76.66
76632;BME280;65526;48.578;-4.520;2023-02-27T04:43:54;102554.50;;;3.81;76.96
76632;BME280;65526;48.578;-4.520;2023-02-27T04:46:25;101925.56;;;-0.15;76.28
76632;BME280;65526;48.578;-4.520;2023-02-27T04:49:07;102479.19;;;3.82;76.68
76632;BME280;65526;48.578;-4.520;2023-02-27T04:51:44;101802.34;;;-0.35;76.67
76632;BME280;65526;48.578;-4.520;2023-02-27T04:54:16;101475.91;;;-2.46;76.84
76632;BME280;65526;48.578;-4.520;2023-02-27T04:56:52;101459.50;;;-2.34;76.66
76632;BME280;65526;48.578;-4.520;2023-02-27T04:59:24;102299.84;;;2.04;78.21
76632;BME280;65526;48.578;-4.520;2023-02-27T05:04:24;101569.44;;;-1.73;78.07
76632;BME280;65526;48.578;-4.520;2023-02-27T05:06:54;101897.75;;;0.26;78.19
76632;BME280;65526;48.578;-4.520;2023-02-27T05:09:35;101946.31;;;0.03;77.80
76632;BME280;65526;48.578;-4.520;2023-02-27T05:12:25;101465.13;;;-2.24;77.52
76632;BME280;65526;48.578;-4.520;2023-02-27T05:17:40;101853.56;;;0.13;76.93
76632;BME280;65526;48.578;-4.520;2023-02-27T05:20:10;102165.69;;;1.97;77.52
76632;BME280;65526;48.578;-4.520;2023-02-27T05:22:55;102556.38;;;4.02;77.83
76632;BME280;65526;48.578;-4.520;2023-02-27T05:25:40;102477.13;;;4.04;77.92
76632;BME280;65526;48.578;-4.520;2023-02-27T05:28:14;101842.72;;;0.01;77.51
76632;BME280;65526;48.578;-4.520;2023-02-27T05:33:23;102515.66;;;4.04;78.22
76632;BME280;65526;48.578;-4.520;2023-02-27T05:36:16;102058.25;;;1.46;78.14
76632;BME280;65526;48.578;-4.520;2023-02-27T05:39:00;101461.34;;;-2.23;77.59
76632;BME280;65526;48.578;-4.520;2023-02-27T05:41:32;102621.22;;;3.98;78.07
76632;BME280;65526;48.578;-4.520;2023-02-27T05:44:17;102476.59;;;4.02;78.69
76632;BME280;65526;48.578;-4.520;2023-02-27T05:47:30;101884.28;;;0.42;78.00
76632;BME280;65526;48.578;-4.520;2023-02-27T05:49:48;101869.44;;;0.16;77.96
76632;BME280;65526;48.578;-4.520;2023-02-27T05:52:19;101466.78;;;-2.23;77.52
76632;BME280;65526;48.578;-4.520;2023-02-27T05:55:11;101516.09;;;-2.36;77.87
76632;BME280;65526;48.578;-4.520;2023-02-27T05:57:44;101884.78;;;0.17;77.80
76632;BME280;65526;48.578;-4.520;2023-02-27T06:00:13;102278.19;;;2.77;78.15
76632;BME280;65526;48.578;-4.520;2023-02-27T06:02:42;102052.16;;;1.17;78.42
76632;BME280;65526;48.578;-4.520;2023-02-27T06:05:17;102482.09;;;4.02;78.77
76632;BME280;65526;48.578;-4.520;2023-02-27T06:07:43;102490.03;;;3.67;79.02
76632;BME280;65526;48.578;-4.520;2023-02-27T06:10:13;101518.91;;;-1.81;78.37
76632;BME280;65526;48.578;-4.520;2023-02-27T06:12:40;102187.56;;;1.92;78.91
76632;BME280;65526;48.578;-4.520;2023-02-27T06:15:08;101886.88;;;0.31;78.56
76632;BME280;65526;48.578;-4.520;2023-02-27T06:17:34;102168.31;;;1.87;78.48
76632;BME280;65526;48.578;-4.520;2023-02-27T06:20:01;102212.03;;;1.98;78.91
76632;BME280;65526;48.578;-4.520;2023-02-27T06:22:28;102043.16;;;1.22;78.41
76632;BME280;65526;48.578;-4.520;2023-02-27T06:24:55;102512.50;;;4.22;78.52
76632;BME280;65526;48.578;-4.520;2023-02-27T06:27:21;102202.28;;;2.08;78.08
76632;BME280;65526;48.578;-4.520;2023-02-27T06:29:47;101940.69;;;0.48;78.36
76632;BME280;65526;48.578;-4.520;2023-02-27T06:32:14;102162.47;;;1.78;79.28
76632;BME280;65526;48.578;-4.520;2023-02-27T06:34:40;102234.13;;;2.62;79.07
76632;BME280;65526;48.578;-4.520;2023-02-27T06:37:07;102215.94;;;2.29;79.19
76632;BME280;65526;48.578;-4.520;2023-02-27T06:39:33;102099.41;;;1.51;78.90
76632;BME280;65526;48.578;-4.520;2023-02-27T06:41:59;102173.59;;;2.15;79.27
76632;BME280;65526;48.578;-4.520;2023-02-27T06:44:26;102627.63;;;4.30;79.65
76632;BME280;65526;48.578;-4.520;2023-02-27T06:46:52;101454.72;;;-2.10;79.33
76632;BME280;65526;48.578;-4.520;2023-02-27T06:49:19;102112.44;;;1.88;81.09
76632;BME280;65526;48.578;-4.520;2023-02-27T06:51:45;102569.44;;;4.17;80.56
76632;BME280;65526;48.578;-4.520;2023-02-27T06:54:12;101859.66;;;0.42;79.97
76632;BME280;65526;48.578;-4.520;2023-02-27T06:56:39;101535.00;;;-1.63;81.57
76632;BME280;65526;48.578;-4.520;2023-02-27T06:59:06;102586.34;;;4.30;83.03
76632;BME280;65526;48.578;-4.520;2023-02-27T07:01:32;101838.75;;;0.30;82.07
76632;BME280;65526;48.578;-4.520;2023-02-27T07:03:59;102229.78;;;2.66;81.29
76632;BME280;65526;48.578;-4.520;2023-02-27T07:06:26;101468.97;;;-1.70;79.56
76632;BME280;65526;48.578;-4.520;2023-02-27T07:08:52;102181.84;;;2.20;80.88
76632;BME280;65526;48.578;-4.520;2023-02-27T07:11:19;101902.53;;;0.79;80.00
76632;BME280;65526;48.578;-4.520;2023-02-27T07:13:45;102034.16;;;1.75;80.12
76632;BME280;65526;48.578;-4.520;2023-02-27T07:16:11;101968.56;;;1.10;79.22
76632;BME280;65526;48.578;-4.520;2023-02-27T07:18:38;101897.16;;;0.90;79.14
76632;BME280;65526;48.578;-4.520;2023-02-27T07:21:04;102539.94;;;4.44;79.04
76632;BME280;65526;48.578;-4.520;2023-02-27T07:23:31;101952.59;;;1.29;78.87
76632;BME280;65526;48.578;-4.520;2023-02-27T07:25:57;102382.19;;;3.59;78.94
76632;BME280;65526;48.578;-4.520;2023-02-27T07:28:24;101941.81;;;0.95;78.72
76632;BME280;65526;48.578;-4.520;2023-02-27T07:30:53;101903.50;;;0.95;79.08
76632;BME280;65526;48.578;-4.520;2023-02-27T07:33:20;102612.69;;;4.58;79.09
76632;BME280;65526;48.578;-4.520;2023-02-27T07:35:47;102185.81;;;2.61;78.92
76632;BME280;65526;48.578;-4.520;2023-02-27T07:38:13;101523.41;;;-1.36;78.62
76632;BME280;65526;48.578;-4.520;2023-02-27T07:40:39;102556.59;;;4.64;78.97
76632;BME280;65526;48.578;-4.520;2023-02-27T07:43:07;101941.78;;;0.68;78.65
76632;BME280;65526;48.578;-4.520;2023-02-27T07:45:33;102541.69;;;4.60;79.01
76632;BME280;65526;48.578;-4.520;2023-02-27T07:48:00;102232.59;;;2.23;78.52
76632;BME280;65526;48.578;-4.520;2023-02-27T07:50:26;102480.13;;;4.34;79.43
76632;BME280;65526;48.578;-4.520;2023-02-27T07:52:52;102197.84;;;2.55;79.20
76632;BME280;65526;48.578;-4.520;2023-02-27T07:55:19;101736.53;;;-0.72;78.93
76632;BME280;65526;48.578;-4.520;2023-02-27T07:57:45;101949.25;;;0.73;78.47
76632;BME280;65526;48.578;-4.520;2023-02-27T08:00:12;101855.66;;;0.71;78.62
76632;BME280;65526;48.578;-4.520;2023-02-27T08:02:39;102037.28;;;1.35;79.50
76632;BME280;65526;48.578;-4.520;2023-02-27T08:05:06;101513.56;;;-1.37;79.58
76632;BME280;65526;48.578;-4.520;2023-02-27T08:07:33;102300.13;;;3.04;79.63
76632;BME280;65526;48.578;-4.520;2023-02-27T08:09:59;102308.34;;;3.04;79.91
76632;BME280;65526;48.578;-4.520;2023-02-27T08:12:25;102359.66;;;3.26;79.95
76632;BME280;65526;48.578;-4.520;2023-02-27T08:14:52;102594.50;;;4.94;79.09
76632;BME280;65526;48.578;-4.520;2023-02-27T08:17:19;102266.56;;;2.97;78.89
76632;BME280;65526;48.578;-4.520;2023-02-27T08:19:45;102572.22;;;5.01;79.25
76632;BME280;65526;48.578;-4.520;2023-02-27T08:22:12;102544.13;;;5.04;79.65
76632;BME280;65526;48.578;-4.520;2023-02-27T08:24:38;102225.09;;;2.99;79.38
76632;BME280;65526;48.578;-4.520;2023-02-27T08:27:06;101965.25;;;1.08;79.13
76632;BME280;65526;48.578;-4.520;2023-02-27T08:29:32;102274.19;;;3.22;78.98
76632;BME280;65526;48.578;-4.520;2023-02-27T08:32:00;101712.41;;;0.28;78.61
76632;BME280;65526;48.578;-4.520;2023-02-27T08:34:27;102531.81;;;5.27;80.60
76632;BME280;65526;48.578;-4.520;2023-02-27T08:36:55;102305.22;;;4.02;80.07
76632;BME280;65526;48.578;-4.520;2023-02-27T08:39:21;102523.03;;;5.40;79.89
76632;BME280;65526;48.578;-4.520;2023-02-27T08:41:51;101590.03;;;-0.45;80.37
76632;BME280;65526;48.578;-4.520;2023-02-27T08:44:18;101595.63;;;-0.35;79.92
76632;BME280;65526;48.578;-4.520;2023-02-27T08:46:45;101921.50;;;1.72;80.73
76632;BME280;65526;48.578;-4.520;2023-02-27T08:49:12;102055.19;;;1.96;80.60
76632;BME280;65526;48.578;-4.520;2023-02-27T08:51:38;101936.25;;;1.66;81.63
76632;BME280;65526;48.578;-4.520;2023-02-27T08:54:05;102046.72;;;2.30;80.76
76632;BME280;65526;48.578;-4.520;2023-02-27T08:56:31;102040.09;;;2.26;81.69
76632;BME280;65526;48.578;-4.520;2023-02-27T08:59:00;101535.06;;;-0.54;80.75
76632;BME280;65526;48.578;-4.520;2023-02-27T09:01:27;102208.84;;;3.29;81.77
76632;BME280;65526;48.578;-4.520;2023-02-27T09:04:03;102283.53;;;4.10;81.73
76632;BME280;65526;48.578;-4.520;2023-02-27T09:06:31;101592.28;;;-0.15;82.05
76632;BME280;65526;48.578;-4.520;2023-02-27T09:08:58;101838.78;;;1.38;82.74
76632;BME280;65526;48.578;-4.520;2023-02-27T09:11:25;101794.50;;;1.14;81.80
76632;BME280;65526;48.578;-4.520;2023-02-27T09:13:53;102186.75;;;3.09;82.24
76632;BME280;65526;48.578;-4.520;2023-02-27T09:16:20;102200.19;;;3.52;82.94
76632;BME280;65526;48.578;-4.520;2023-02-27T09:18:48;102538.28;;;5.73;82.80
76632;BME280;65526;48.578;-4.520;2023-02-27T09:21:14;102028.88;;;2.69;82.26
76632;BME280;65526;48.578;-4.520;2023-02-27T09:23:41;101960.34;;;2.32;82.11
76632;BME280;65526;48.578;-4.520;2023-02-27T09:26:08;101613.88;;;-0.14;81.69
76632;BME280;65526;48.578;-4.520;2023-02-27T09:28:36;101985.75;;;2.60;81.26
76632;BME280;65526;48.578;-4.520;2023-02-27T09:31:05;102561.00;;;6.05;80.78
76632;BME280;65526;48.578;-4.520;2023-02-27T09:33:36;102260.63;;;3.94;80.56
76632;BME280;65526;48.578;-4.520;2023-02-27T09:36:04;102594.41;;;6.19;80.17
76632;BME280;65526;48.578;-4.520;2023-02-27T09:38:32;102252.75;;;4.23;80.00
76632;BME280;65526;48.578;-4.520;2023-02-27T09:41:00;101596.63;;;0.39;78.86
76632;BME280;65526;48.578;-4.520;2023-02-27T09:43:34;102553.81;;;6.29;79.41
76632;BME280;65526;48.578;-4.520;2023-02-27T09:46:05;101804.91;;;0.58;80.18
76632;BME280;65526;48.578;-4.520;2023-02-27T09:48:46;102186.31;;;3.84;81.40
76632;BME280;65526;48.578;-4.520;2023-02-27T09:51:16;101968.47;;;2.22;81.07
76632;BME280;65526;48.578;-4.520;2023-02-27T09:53:49;102632.47;;;6.07;82.07
76632;BME280;65526;48.578;-4.520;2023-02-27T09:56:23;102350.06;;;4.02;81.18
76632;BME280;65526;48.578;-4.520;2023-02-27T10:07:31;102577.00;;;6.13;81.90
76632;BME280;65526;48.578;-4.520;2023-02-27T10:10:23;102183.53;;;3.74;82.32
76632;BME280;65526;48.578;-4.520;2023-02-27T10:15:46;102147.97;;;3.57;81.91
76632;BME280;65526;48.578;-4.520;2023-02-27T10:18:17;102294.31;;;4.32;81.85
76632;BME280;65526;48.578;-4.520;2023-02-27T10:20:53;102320.16;;;4.21;81.24
76632;BME280;65526;48.578;-4.520;2023-02-27T10:26:19;102270.88;;;4.19;81.51
76632;BME280;65526;48.578;-4.520;2023-02-27T10:28:47;102349.50;;;4.62;81.76
76632;BME280;65526;48.578;-4.520;2023-02-27T10:31:21;101675.28;;;0.96;80.97
76632;BME280;65526;48.578;-4.520;2023-02-27T10:33:49;102218.41;;;4.41;80.98
76632;BME280;65526;48.578;-4.520;2023-02-27T10:36:17;102097.50;;;3.84;81.36
76632;BME280;65526;48.578;-4.520;2023-02-27T10:39:07;102624.22;;;6.78;81.22
76632;BME280;65526;48.578;-4.520;2023-02-27T10:41:37;102633.63;;;6.87;81.85
76632;BME280;65526;48.578;-4.520;2023-02-27T10:44:05;102310.75;;;5.19;80.74
76632;BME280;65526;48.578;-4.520;2023-02-27T10:46:34;102117.03;;;3.87;80.68
76632;BME280;65526;48.578;-4.520;2023-02-27T10:49:05;102562.22;;;7.19;80.05
76632;BME280;65526;48.578;-4.520;2023-02-27T10:51:35;102697.69;;;7.24;77.78
76632;BME280;65526;48.578;-4.520;2023-02-27T10:56:47;102280.13;;;5.62;76.07
76632;BME280;65526;48.578;-4.520;2023-02-27T10:59:18;102054.34;;;3.99;74.67
76632;BME280;65526;48.578;-4.520;2023-02-27T11:02:28;102597.69;;;7.66;74.08
76632;BME280;65526;48.578;-4.520;2023-02-27T11:04:58;101722.41;;;2.03;77.03
76632;BME280;65526;48.578;-4.520;2023-02-27T11:07:37;101993.00;;;3.99;76.48
76632;BME280;65526;48.578;-4.520;2023-02-27T11:13:01;102187.31;;;4.81;75.90
76632;BME280;65526;48.578;-4.520;2023-02-27T11:15:32;102180.44;;;4.73;77.40
76632;BME280;65526;48.578;-4.520;2023-02-27T11:18:31;101899.94;;;2.85;78.24
76632;BME280;65526;48.578;-4.520;2023-02-27T11:23:59;101983.06;;;3.47;79.15
76632;BME280;65526;48.578;-4.520;2023-02-27T11:26:30;102576.34;;;7.02;80.03
76632;BME280;65526;48.578;-4.520;2023-02-27T11:34:32;102315.09;;;5.81;79.22
76632;BME280;65526;48.578;-4.520;2023-02-27T11:39:54;101643.72;;;1.88;75.73
76632;BME280;65526;48.578;-4.520;2023-02-27T11:42:30;102172.34;;;5.43;74.93
76632;BME280;65526;48.578;-4.520;2023-02-27T11:45:04;101995.75;;;4.34;73.96
76632;BME280;65526;48.578;-4.520;2023-02-27T11:47:39;101652.53;;;1.95;72.93
76632;BME280;65526;48.578;-4.520;2023-02-27T11:55:53;101988.00;;;4.47;73.24
76632;BME280;65526;48.578;-4.520;2023-02-27T11:58:23;102334.91;;;6.14;72.63
76632;BME280;65526;48.578;-4.520;2023-02-27T12:01:00;101550.75;;;1.71;74.02
76632;BME280;65526;48.578;-4.520;2023-02-27T12:03:46;102352.66;;;5.92;75.51
76632;BME280;65526;48.578;-4.520;2023-02-27T12:06:22;102230.22;;;5.48;75.46
76632;BME280;65526;48.578;-4.520;2023-02-27T12:08:54;102319.59;;;5.37;76.22
76632;BME280;65526;48.578;-4.520;2023-02-27T12:13:56;101933.63;;;3.83;77.06
76632;BME280;65526;48.578;-4.520;2023-02-27T12:16:32;102552.63;;;7.55;76.47
76632;BME280;65526;48.578;-4.520;2023-02-27T12:19:18;102127.13;;;5.49;74.23
76632;BME280;65526;48.578;-4.520;2023-02-27T12:22:26;101901.44;;;3.83;73.61
76632;BME280;65526;48.578;-4.520;2023-02-27T12:25:07;101616.78;;;1.65;70.17
76632;BME280;65526;48.578;-4.520;2023-02-27T12:27:59;101662.03;;;1.82;70.31
76632;BME280;65526;48.578;-4.520;2023-02-27T12:30:38;102610.41;;;7.62;68.29
76632;BME280;65526;48.578;-4.520;2023-02-27T12:36:00;102565.44;;;7.36;66.80
76632;BME280;65526;48.578;-4.520;2023-02-27T12:38:30;101959.47;;;3.97;68.20
76632;BME280;65526;48.578;-4.520;2023-02-27T12:41:14;102362.38;;;6.59;67.09
76632;BME280;65526;48.578;-4.520;2023-02-27T12:43:50;101889.88;;;3.96;67.58
76632;BME280;65526;48.578;-4.520;2023-02-27T12:52:19;101575.22;;;1.98;65.97
76632;BME280;65526;48.578;-4.520;2023-02-27T12:57:32;102492.50;;;7.27;66.33
76632;BME280;65526;48.578;-4.520;2023-02-27T13:00:18;101916.75;;;4.25;65.43
76632;BME280;65526;48.578;-4.520;2023-02-27T13:03:27;101897.75;;;4.38;64.19
76632;BME280;65526;48.578;-4.520;2023-02-27T13:12:15;102157.50;;;6.03;64.12
76632;BME280;65526;48.578;-4.520;2023-02-27T13:14:57;101610.34;;;2.47;64.63
76632;BME280;65526;48.578;-4.520;2023-02-27T13:17:45;102010.34;;;5.25;63.65
76632;BME280;65526;48.578;-4.520;2023-02-27T13:20:35;102465.09;;;8.38;63.19
76632;BME280;65526;48.578;-4.520;2023-02-27T13:26:20;102267.59;;;6.64;62.95
76632;BME280;65526;48.578;-4.520;2023-02-27T13:28:49;102177.97;;;6.41;61.01
76632;BME280;65526;48.578;-4.520;2023-02-27T13:31:31;101969.63;;;5.06;62.86
76632;BME280;65526;48.578;-4.520;2023-02-27T13:36:52;102448.47;;;8.38;63.41
76632;BME280;65526;48.578;-4.520;2023-02-27T13:39:53;102459.44;;;8.48;62.22
76632;BME280;65526;48.578;-4.520;2023-02-27T13:44:56;102122.88;;;6.21;61.57
76632;BME280;65526;48.578;-4.520;2023-02-27T13:50:04;101879.69;;;4.82;62.50
76632;BME280;65526;48.578;-4.520;2023-02-27T13:52:47;101880.06;;;4.60;61.64
76632;BME280;65526;48.578;-4.520;2023-02-27T13:55:31;101965.16;;;4.46;63.17
76632;BME280;65526;48.578;-4.520;2023-02-27T13:58:03;102039.53;;;5.26;63.49
76632;BME280;65526;48.578;-4.520;2023-02-27T14:00:32;102247.94;;;6.70;62.67
76632;BME280;65526;48.578;-4.520;2023-02-27T14:03:18;101637.97;;;3.26;62.15
76632;BME280;65526;48.578;-4.520;2023-02-27T14:05:47;102121.81;;;6.17;63.21
76632;BME280;65526;48.578;-4.520;2023-02-27T14:08:28;101534.59;;;2.76;61.33
76632;BME280;65526;48.578;-4.520;2023-02-27T14:11:50;101901.66;;;4.92;62.03
76632;BME280;65526;48.578;-4.520;2023-02-27T14:14:47;101855.84;;;4.57;61.39
76632;BME280;65526;48.578;-4.520;2023-02-27T14:22:43;101640.81;;;2.75;61.66
76632;BME280;65526;48.578;-4.520;2023-02-27T14:25:38;102450.28;;;8.18;63.17
76632;BME280;65526;48.578;-4.520;2023-02-27T14:28:16;101888.59;;;4.58;60.48
76632;BME280;65526;48.578;-4.520;2023-02-27T14:30:57;102461.63;;;8.51;59.62
76632;BME280;65526;48.578;-4.520;2023-02-27T14:33:32;101607.22;;;3.29;58.65
76632;BME280;65526;48.578;-4.520;2023-02-27T14:36:05;101600.94;;;3.08;60.47
76632;BME280;65526;48.578;-4.520;2023-02-27T14:38:34;101935.09;;;4.70;62.07
76632;BME280;65526;48.578;-4.520;2023-02-27T14:44:25;101696.78;;;3.05;61.62
76632;BME280;65526;48.578;-4.520;2023-02-27T14:46:54;101964.63;;;5.13;62.65
76632;BME280;65526;48.578;-4.520;2023-02-27T14:49:27;102011.88;;;5.46;62.00
76632;BME280;65526;48.578;-4.520;2023-02-27T14:51:55;101889.13;;;4.60;62.33
76632;BME280;65526;48.578;-4.520;2023-02-27T14:54:30;102067.28;;;5.49;62.46
76632;BME280;65526;48.578;-4.520;2023-02-27T14:57:00;102468.50;;;8.24;62.53
76632;BME280;65526;48.578;-4.520;2023-02-27T14:59:41;102150.03;;;6.48;61.06
76632;BME280;65526;48.578;-4.520;2023-02-27T15:02:33;101898.41;;;4.79;61.53
76632;BME280;65526;48.578;-4.520;2023-02-27T15:07:33;102294.63;;;6.72;61.78
76632;BME280;65526;48.578;-4.520;2023-02-27T15:10:04;101753.81;;;3.69;62.90
76632;BME280;65526;48.578;-4.520;2023-02-27T15:12:36;102550.09;;;8.03;62.71
76632;BME280;65526;48.578;-4.520;2023-02-27T15:15:05;101825.53;;;3.92;63.24
76632;BME280;65526;48.578;-4.520;2023-02-27T15:17:43;101753.34;;;2.86;65.20
76632;BME280;65526;48.578;-4.520;2023-02-27T15:20:26;101958.69;;;4.91;63.70
76632;BME280;65526;48.578;-4.520;2023-02-27T15:22:56;101887.53;;;4.49;63.46
76632;BME280;65526;48.578;-4.520;2023-02-27T15:25:31;101927.00;;;4.09;64.13
76632;BME280;65526;48.578;-4.520;2023-02-27T15:28:15;101533.28;;;1.87;63.86
76632;BME280;65526;48.578;-4.520;2023-02-27T16:16:03;102025.16;;;4.54;68.09
76632;BME280;65526;48.578;-4.520;2023-02-27T16:18:52;101930.84;;;4.03;68.28
76632;BME280;65526;48.578;-4.520;2023-02-27T16:21:21;101867.03;;;4.01;65.83
76632;BME280;65526;48.578;-4.520;2023-02-27T16:23:51;101674.56;;;2.56;65.94
76632;BME280;65526;48.578;-4.520;2023-02-27T16:26:26;102470.69;;;7.65;65.29
76632;BME280;65526;48.578;-4.520;2023-02-27T16:31:31;102418.94;;;6.77;64.97
76632;BME280;65526;48.578;-4.520;2023-02-27T16:33:59;102474.38;;;7.50;64.81